createdAt,value
2023-06-30T00:01:04.784Z,6.46
2023-06-30T00:03:05.906Z,6.06
2023-06-30T00:05:06.783Z,5.59
2023-06-30T00:07:00.076Z,5.73
2023-06-30T00:09:00.961Z,5.93
2023-06-30T00:11:01.913Z,5.84
2023-06-30T00:13:02.949Z,6.03
2023-06-30T00:15:03.714Z,5.82
2023-06-30T00:17:03.856Z,6.11
2023-06-30T00:19:04.721Z,6.03
2023-06-30T00:21:05.309Z,5.54
2023-06-30T00:23:06.344Z,5.92
2023-06-30T00:24:55.720Z,6.05
2023-06-30T00:26:32.819Z,5.40
2023-06-30T00:28:33.556Z,5.32
2023-06-30T00:30:20.874Z,5.52
2023-06-30T00:32:21.545Z,5.79
2023-06-30T00:34:22.469Z,6.23
2023-06-30T00:36:17.298Z,5.86
2023-06-30T00:38:17.782Z,6.47
2023-06-30T00:40:18.464Z,7.09
2023-06-30T00:42:17.235Z,6.86
2023-06-30T00:44:10.479Z,6.83
2023-06-30T00:46:10.880Z,6.20
2023-06-30T00:48:11.066Z,6.09
2023-06-30T00:50:11.930Z,5.73
2023-06-30T00:52:12.498Z,5.35
2023-06-30T00:54:13.235Z,5.79
2023-06-30T00:56:13.989Z,5.73
2023-06-30T00:58:14.600Z,6.02
2023-06-30T01:00:07.416Z,5.99
2023-06-30T01:02:08.398Z,5.96
2023-06-30T01:03:54.490Z,6.12
2023-06-30T01:05:55.375Z,6.22
2023-06-30T01:07:55.988Z,6.12
2023-06-30T01:09:55.459Z,5.60
2023-06-30T01:11:45.752Z,6.17
2023-06-30T01:13:46.083Z,6.23
2023-06-30T01:15:47.234Z,6.09
2023-06-30T01:17:41.634Z,6.02
2023-06-30T01:19:36.259Z,6.21
2023-06-30T01:21:11.230Z,5.90
2023-06-30T01:23:11.660Z,6.09
2023-06-30T01:25:10.915Z,6.61
2023-06-30T01:27:11.691Z,6.01
2023-06-30T01:29:13.104Z,6.66
2023-06-30T01:31:14.010Z,6.53
2023-06-30T01:33:07.619Z,6.52
2023-06-30T01:34:59.330Z,7.00
2023-06-30T01:36:58.438Z,6.59
2023-06-30T01:38:57.766Z,6.87
2023-06-30T01:40:51.294Z,6.77
2023-06-30T01:42:52.243Z,6.88
2023-06-30T01:44:47.896Z,6.82
2023-06-30T01:46:47.567Z,7.45
2023-06-30T01:48:40.960Z,6.80
2023-06-30T01:50:36.314Z,6.91
2023-06-30T01:52:36.890Z,7.10
2023-06-30T01:54:37.807Z,7.32
2023-06-30T01:56:28.337Z,7.35
2023-06-30T01:58:29.316Z,7.06
2023-06-30T02:00:30.218Z,7.16
2023-06-30T02:02:31.084Z,7.19
2023-06-30T02:04:31.616Z,6.57
2023-06-30T02:06:32.382Z,6.82
2023-06-30T02:08:33.298Z,7.40
2023-06-30T02:10:22.608Z,7.41
2023-06-30T02:12:23.385Z,6.67
2023-06-30T02:14:15.581Z,7.23
2023-06-30T02:16:08.578Z,7.02
2023-06-30T02:18:08.250Z,6.99
2023-06-30T02:20:08.561Z,7.19
2023-06-30T02:22:09.456Z,7.49
2023-06-30T02:24:10.534Z,7.13
2023-06-30T02:26:11.400Z,7.38
2023-06-30T02:28:10.617Z,7.14
2023-06-30T02:30:11.445Z,7.52
2023-06-30T02:32:10.580Z,7.52
2023-06-30T02:34:11.074Z,6.70
2023-06-30T02:36:11.847Z,6.86
2023-06-30T02:38:05.431Z,7.33
2023-06-30T02:40:06.443Z,7.08
2023-06-30T02:42:06.028Z,6.73
2023-06-30T02:44:06.727Z,6.60
2023-06-30T02:46:07.350Z,6.73
2023-06-30T02:48:08.387Z,7.05
2023-06-30T02:50:09.023Z,7.56
2023-06-30T02:52:09.677Z,7.04
2023-06-30T02:54:10.427Z,7.80
2023-06-30T02:56:11.339Z,7.96
2023-06-30T02:58:04.865Z,8.10
2023-06-30T03:00:02.319Z,8.03
2023-06-30T03:01:55.374Z,7.71
2023-06-30T03:03:54.254Z,7.71
2023-06-30T03:05:40.531Z,7.70
2023-06-30T03:07:41.139Z,8.17
2023-06-30T03:09:27.320Z,7.50
2023-06-30T03:11:15.268Z,7.46
2023-06-30T03:13:09.992Z,8.33
2023-06-30T03:15:10.783Z,7.61
2023-06-30T03:17:06.322Z,7.40
2023-06-30T03:19:06.266Z,7.09
2023-06-30T03:20:58.026Z,7.52
2023-06-30T03:22:58.597Z,7.46
2023-06-30T03:24:59.474Z,7.45
2023-06-30T03:27:00.076Z,7.43
2023-06-30T03:29:01.018Z,7.72
2023-06-30T03:31:00.259Z,7.27
2023-06-30T03:32:54.368Z,7.51
2023-06-30T03:34:47.797Z,7.30
2023-06-30T03:36:49.009Z,6.98
2023-06-30T03:38:49.381Z,7.84
2023-06-30T03:40:37.489Z,8.36
2023-06-30T03:42:38.182Z,7.39
2023-06-30T03:44:14.361Z,6.93
2023-06-30T03:46:04.732Z,6.53
2023-06-30T03:48:05.167Z,7.24
2023-06-30T03:50:04.619Z,6.59
2023-06-30T03:51:57.898Z,7.00
2023-06-30T03:53:51.159Z,6.32
2023-06-30T03:55:50.394Z,7.50
2023-06-30T03:57:40.742Z,6.82
2023-06-30T03:59:41.285Z,6.98
2023-06-30T04:01:41.962Z,7.19
2023-06-30T04:03:42.799Z,6.86
2023-06-30T04:05:35.955Z,7.40
2023-06-30T04:07:26.828Z,6.71
2023-06-30T04:09:27.915Z,6.89
2023-06-30T04:11:28.885Z,6.53
2023-06-30T04:13:29.417Z,6.93
2023-06-30T04:15:28.928Z,6.38
2023-06-30T04:17:29.547Z,6.43
2023-06-30T04:19:30.516Z,6.45
2023-06-30T04:21:29.383Z,6.08
2023-06-30T04:23:29.953Z,6.59
2023-06-30T04:25:30.243Z,6.39
2023-06-30T04:27:24.991Z,6.00
2023-06-30T04:29:24.748Z,6.14
2023-06-30T04:31:25.915Z,6.30
2023-06-30T04:33:26.502Z,6.15
2023-06-30T04:35:27.232Z,6.20
2023-06-30T04:37:17.708Z,6.36
2023-06-30T04:39:18.682Z,6.28
2023-06-30T04:41:19.643Z,6.61
2023-06-30T04:43:12.762Z,6.15
2023-06-30T04:45:08.336Z,6.16
2023-06-30T04:47:08.783Z,6.82
2023-06-30T04:49:03.066Z,6.44
2023-06-30T04:51:04.026Z,6.57
2023-06-30T04:53:04.454Z,6.42
2023-06-30T04:55:03.463Z,6.77
2023-06-30T04:57:04.410Z,6.52
2023-06-30T04:59:04.860Z,6.26
2023-06-30T05:00:58.508Z,6.51
2023-06-30T05:02:51.490Z,5.87
2023-06-30T05:04:41.128Z,6.62
2023-06-30T05:06:41.952Z,6.20
2023-06-30T05:08:31.595Z,6.18
2023-06-30T05:10:32.315Z,5.78
2023-06-30T05:12:26.101Z,6.09
2023-06-30T05:14:19.241Z,6.34
2023-06-30T05:16:19.949Z,5.51
2023-06-30T05:18:13.475Z,5.87
2023-06-30T05:20:14.240Z,6.10
2023-06-30T05:22:14.816Z,5.86
2023-06-30T05:24:09.235Z,5.84
2023-06-30T05:26:02.568Z,5.95
2023-06-30T05:28:03.186Z,5.75
2023-06-30T05:30:03.931Z,5.37
2023-06-30T05:31:47.418Z,5.28
2023-06-30T05:33:47.981Z,5.32
2023-06-30T05:35:48.730Z,5.50
2023-06-30T05:37:40.686Z,5.14
2023-06-30T05:39:41.527Z,4.94
2023-06-30T05:41:42.275Z,5.63
2023-06-30T05:43:41.468Z,4.89
2023-06-30T05:45:42.292Z,4.88
2023-06-30T05:47:33.159Z,4.94
2023-06-30T05:49:26.277Z,5.18
2023-06-30T05:51:27.444Z,5.37
2023-06-30T05:53:26.882Z,5.06
2023-06-30T05:55:27.374Z,4.74
2023-06-30T05:57:28.320Z,4.65
2023-06-30T05:59:29.564Z,4.29
2023-06-30T06:01:29.944Z,4.12
2023-06-30T06:03:31.083Z,4.19
2023-06-30T06:05:32.268Z,4.27
2023-06-30T06:07:33.286Z,4.38
2023-06-30T06:09:33.946Z,4.22
2023-06-30T06:11:34.504Z,4.24
2023-06-30T06:13:35.395Z,4.32
2023-06-30T06:15:36.150Z,3.75
2023-06-30T06:17:37.074Z,3.93
2023-06-30T06:19:37.910Z,3.85
2023-06-30T06:21:39.132Z,3.99
2023-06-30T06:23:39.724Z,4.11
2023-06-30T06:25:40.474Z,4.19
2023-06-30T06:27:31.120Z,4.23
2023-06-30T06:29:31.805Z,3.92
2023-06-30T06:31:25.551Z,4.21
2023-06-30T06:33:26.797Z,3.75
2023-06-30T06:35:27.678Z,3.80
2023-06-30T06:37:20.299Z,4.22
2023-06-30T06:39:20.664Z,4.16
2023-06-30T06:41:16.301Z,3.98
2023-06-30T06:43:09.936Z,4.05
2023-06-30T06:45:10.577Z,3.65
2023-06-30T06:47:11.302Z,3.82
2023-06-30T06:49:11.752Z,4.01
2023-06-30T06:51:12.407Z,3.93
2023-06-30T06:53:13.302Z,3.57
2023-06-30T06:55:14.107Z,4.29
2023-06-30T06:57:04.606Z,3.96
2023-06-30T06:59:04.720Z,4.06
2023-06-30T07:01:04.995Z,4.03
2023-06-30T07:03:05.475Z,4.42
2023-06-30T07:04:59.322Z,4.11
2023-06-30T07:06:53.993Z,4.27
2023-06-30T07:08:46.804Z,4.44
2023-06-30T07:10:46.359Z,4.12
2023-06-30T07:12:47.369Z,4.23
2023-06-30T07:14:50.121Z,4.65
2023-06-30T07:16:50.897Z,4.07
2023-06-30T07:18:40.465Z,4.14
2023-06-30T07:20:41.146Z,3.94
2023-06-30T07:22:42.194Z,3.93
2023-06-30T07:24:43.932Z,4.31
2023-06-30T07:26:37.895Z,4.72
2023-06-30T07:28:38.668Z,4.57
2023-06-30T07:30:39.315Z,4.33
2023-06-30T07:32:30.129Z,4.24
2023-06-30T07:34:30.748Z,4.38
2023-06-30T07:36:30.548Z,4.44
2023-06-30T07:38:31.048Z,4.16
2023-06-30T07:40:45.887Z,4.10
2023-06-30T07:42:43.946Z,4.02
2023-06-30T07:44:44.654Z,3.93
2023-06-30T07:46:38.191Z,4.02
2023-06-30T07:48:38.842Z,3.87
2023-06-30T07:50:38.762Z,4.36
2023-06-30T07:52:40.409Z,4.26
2023-06-30T07:54:42.514Z,4.33
2023-06-30T07:56:43.937Z,4.15
2023-06-30T07:58:38.131Z,4.21
2023-06-30T08:00:31.631Z,4.04
2023-06-30T08:02:32.450Z,4.14
2023-06-30T08:04:33.291Z,4.07
2023-06-30T08:06:16.208Z,4.16
2023-06-30T08:08:09.716Z,4.46
2023-06-30T08:10:10.391Z,4.83
2023-06-30T08:12:10.809Z,4.45
2023-06-30T08:14:11.444Z,4.41
2023-06-30T08:16:10.572Z,4.21
2023-06-30T08:18:11.332Z,4.31
2023-06-30T08:20:12.261Z,4.35
2023-06-30T08:22:13.451Z,4.31
2023-06-30T08:24:08.245Z,4.74
2023-06-30T08:26:09.055Z,4.29
2023-06-30T08:28:08.476Z,4.39
2023-06-30T08:30:08.882Z,4.51
2023-06-30T08:31:54.924Z,4.45
2023-06-30T08:33:54.639Z,4.36
2023-06-30T08:35:52.111Z,4.00
2023-06-30T08:37:45.483Z,4.54
2023-06-30T08:39:46.197Z,4.30
2023-06-30T08:41:39.123Z,4.41
2023-06-30T08:43:39.728Z,4.23
2023-06-30T08:45:39.212Z,4.03
2023-06-30T08:47:39.927Z,3.76
2023-06-30T08:49:40.927Z,4.30
2023-06-30T08:51:40.366Z,4.11
2023-06-30T08:53:39.800Z,4.00
2023-06-30T08:55:40.403Z,3.98
2023-06-30T08:57:33.937Z,4.43
2023-06-30T08:59:30.573Z,3.99
2023-06-30T09:01:31.102Z,3.99
2023-06-30T09:03:31.836Z,4.51
2023-06-30T09:05:32.765Z,4.23
2023-06-30T09:07:33.878Z,4.40
2023-06-30T09:09:34.178Z,4.32
2023-06-30T09:11:34.810Z,4.25
2023-06-30T09:13:35.352Z,4.60
2023-06-30T09:15:36.047Z,4.39
2023-06-30T09:17:36.822Z,4.17
2023-06-30T09:19:37.751Z,4.26
2023-06-30T09:21:38.397Z,4.33
2023-06-30T09:23:39.430Z,4.22
2023-06-30T09:25:39.799Z,4.24
2023-06-30T09:27:40.800Z,4.26
2023-06-30T09:29:41.758Z,4.44
2023-06-30T09:31:28.101Z,4.23
2023-06-30T09:33:20.179Z,4.32
2023-06-30T09:35:19.542Z,4.37
2023-06-30T09:37:19.721Z,4.50
2023-06-30T09:39:09.640Z,4.36
2023-06-30T09:40:53.259Z,4.13
2023-06-30T09:42:38.293Z,3.99
2023-06-30T09:44:39.119Z,4.04
2023-06-30T09:46:40.148Z,4.28
2023-06-30T09:48:41.432Z,4.22
2023-06-30T09:50:41.990Z,3.85
2023-06-30T09:52:42.723Z,3.54
2023-06-30T09:54:43.795Z,3.97
2023-06-30T09:56:43.914Z,4.28
2023-06-30T09:58:44.602Z,3.79
2023-06-30T10:00:38.357Z,4.00
2023-06-30T10:02:31.633Z,3.95
2023-06-30T10:04:32.551Z,4.14
2023-06-30T10:06:33.720Z,4.44
2023-06-30T10:08:34.383Z,4.09
2023-06-30T10:10:35.058Z,4.17
2023-06-30T10:12:35.997Z,3.83
2023-06-30T10:14:26.250Z,4.14
2023-06-30T10:16:27.530Z,3.63
2023-06-30T10:18:28.284Z,4.20
2023-06-30T10:20:42.339Z,4.21
2023-06-30T10:22:40.112Z,4.20
2023-06-30T10:24:28.659Z,3.86
2023-06-30T10:26:14.075Z,4.01
2023-06-30T10:28:14.395Z,4.65
2023-06-30T10:29:49.526Z,4.03
2023-06-30T10:31:43.906Z,4.21
2023-06-30T10:33:38.510Z,3.99
2023-06-30T10:35:39.095Z,4.00
2023-06-30T10:37:17.074Z,4.12
2023-06-30T10:39:02.303Z,4.06
2023-06-30T10:40:56.396Z,4.03
2023-06-30T10:42:56.900Z,3.87
2023-06-30T10:44:50.058Z,4.03
2023-06-30T10:46:50.907Z,4.28
2023-06-30T10:48:43.984Z,4.28
2023-06-30T10:50:44.859Z,4.07
2023-06-30T10:52:45.796Z,4.36
2023-06-30T10:54:35.061Z,4.16
2023-06-30T10:55:58.868Z,4.92
2023-06-30T10:57:20.826Z,5.14
2023-06-30T10:59:13.779Z,4.55
2023-06-30T11:00:58.824Z,4.41
2023-06-30T11:02:23.016Z,4.79
2023-06-30T11:04:06.229Z,4.83
2023-06-30T11:05:33.743Z,6.09
2023-06-30T11:09:06.605Z,4.90
2023-06-30T11:10:39.858Z,4.89
2023-06-30T11:12:13.231Z,4.90
2023-06-30T11:13:58.017Z,5.21
2023-06-30T11:15:42.499Z,5.01
2023-06-30T11:17:16.223Z,4.83
2023-06-30T11:18:45.553Z,4.78
2023-06-30T11:20:07.762Z,4.51
2023-06-30T11:21:48.660Z,5.00
2023-06-30T11:23:13.028Z,4.44
2023-06-30T11:24:37.079Z,5.25
2023-06-30T11:26:18.189Z,4.77
2023-06-30T11:27:51.791Z,4.44
2023-06-30T11:29:25.224Z,5.15
2023-06-30T11:30:58.901Z,4.73
2023-06-30T11:32:39.472Z,4.56
2023-06-30T11:34:15.848Z,4.83
2023-06-30T11:36:00.829Z,5.03
2023-06-30T11:37:42.708Z,4.76
2023-06-30T11:39:11.857Z,4.58
2023-06-30T11:40:45.024Z,5.07
2023-06-30T11:42:39.313Z,5.17
2023-06-30T11:46:24.788Z,4.60
2023-06-30T11:47:59.920Z,4.64
2023-06-30T11:49:36.397Z,5.08
2023-06-30T11:51:17.825Z,4.79
2023-06-30T11:53:11.204Z,5.25
2023-06-30T11:54:42.604Z,5.17
2023-06-30T11:56:18.280Z,4.75
2023-06-30T11:57:51.537Z,5.03
2023-06-30T11:59:26.059Z,4.20
2023-06-30T12:00:57.441Z,4.98
2023-06-30T12:02:30.932Z,4.22
2023-06-30T12:04:02.447Z,4.26
2023-06-30T12:05:43.421Z,4.76
2023-06-30T12:07:13.242Z,4.47
2023-06-30T12:08:41.700Z,4.58
2023-06-30T12:10:11.198Z,4.44
2023-06-30T12:11:42.387Z,4.66
2023-06-30T12:13:15.941Z,4.78
2023-06-30T12:14:52.653Z,4.42
2023-06-30T12:16:37.903Z,4.84
2023-06-30T12:18:18.433Z,4.99
2023-06-30T12:19:51.516Z,4.70
2023-06-30T12:21:24.929Z,4.77
2023-06-30T12:23:10.359Z,4.78
2023-06-30T12:24:46.136Z,4.61
2023-06-30T12:26:27.984Z,4.85
2023-06-30T12:28:22.503Z,4.41
2023-06-30T12:29:48.961Z,4.76
2023-06-30T12:31:20.534Z,4.52
2023-06-30T12:33:01.388Z,5.08
2023-06-30T12:34:32.854Z,4.95
2023-06-30T12:35:59.496Z,4.79
2023-06-30T12:37:44.570Z,4.85
2023-06-30T12:39:16.121Z,4.68
2023-06-30T12:40:50.613Z,4.97
2023-06-30T12:42:14.666Z,4.93
2023-06-30T12:43:59.973Z,4.87
2023-06-30T12:45:44.808Z,4.40
2023-06-30T12:47:20.533Z,4.82
2023-06-30T12:48:57.008Z,4.71
2023-06-30T12:50:30.463Z,4.71
2023-06-30T12:51:54.801Z,4.40
2023-06-30T12:53:30.812Z,4.63
2023-06-30T12:54:55.032Z,4.54
2023-06-30T12:56:31.810Z,4.70
2023-06-30T12:58:17.213Z,4.45
2023-06-30T13:00:02.360Z,4.26
2023-06-30T13:01:29.095Z,4.31
2023-06-30T13:02:55.359Z,4.46
2023-06-30T13:04:40.713Z,4.04
2023-06-30T13:06:15.238Z,4.23
2023-06-30T13:07:48.281Z,4.18
2023-06-30T13:09:29.468Z,4.27
2023-06-30T13:11:06.172Z,4.38
2023-06-30T13:12:30.245Z,4.41
2023-06-30T13:13:52.100Z,4.06
2023-06-30T13:20:13.251Z,4.14
2023-06-30T13:21:48.516Z,4.14
2023-06-30T13:23:36.337Z,4.40
2023-06-30T13:25:23.590Z,3.77
2023-06-30T13:26:57.070Z,4.22
2023-06-30T13:28:30.856Z,4.22
2023-06-30T13:30:02.371Z,3.57
2023-06-30T13:31:50.691Z,3.76
2023-06-30T13:33:26.302Z,4.05
2023-06-30T13:35:01.408Z,3.97
2023-06-30T13:36:34.676Z,4.25
2023-06-30T13:38:19.657Z,4.13
2023-06-30T13:39:43.824Z,4.26
2023-06-30T13:41:30.245Z,4.26
2023-06-30T13:43:06.798Z,4.45
2023-06-30T13:44:28.466Z,4.20
2023-06-30T13:45:50.562Z,4.71
2023-06-30T13:47:12.106Z,4.06
2023-06-30T13:48:36.365Z,4.19
2023-06-30T13:50:00.122Z,4.20
2023-06-30T13:51:24.390Z,4.12
2023-06-30T13:52:48.750Z,4.46
2023-06-30T13:54:22.181Z,4.01
2023-06-30T13:55:51.364Z,4.35
2023-06-30T13:57:26.837Z,4.06
2023-06-30T13:58:50.444Z,4.42
2023-06-30T14:00:27.107Z,4.07
2023-06-30T14:01:48.943Z,4.25
2023-06-30T14:03:20.677Z,4.37
2023-06-30T14:04:42.427Z,4.17
2023-06-30T14:06:17.615Z,3.82
2023-06-30T14:07:42.111Z,4.06
2023-06-30T14:09:13.358Z,4.16
2023-06-30T14:10:42.961Z,3.94
2023-06-30T14:12:19.807Z,3.98
2023-06-30T14:13:53.145Z,3.98
2023-06-30T14:15:38.889Z,4.12
2023-06-30T14:17:12.263Z,4.24
2023-06-30T14:18:41.416Z,4.23
2023-06-30T14:20:10.489Z,3.97
2023-06-30T14:21:44.046Z,4.44
2023-06-30T14:23:17.663Z,4.38
2023-06-30T14:24:39.260Z,4.60
2023-06-30T14:26:01.801Z,4.72
2023-06-30T14:27:24.178Z,4.54
2023-06-30T14:28:57.445Z,4.32
2023-06-30T14:30:33.664Z,4.57
2023-06-30T14:32:09.306Z,4.21
2023-06-30T14:33:38.053Z,4.06
2023-06-30T14:35:11.286Z,4.97
2023-06-30T14:36:46.470Z,4.87
2023-06-30T14:38:31.388Z,4.43
2023-06-30T14:40:04.702Z,4.43
2023-06-30T14:41:40.021Z,4.70
2023-06-30T14:43:15.964Z,5.22
2023-06-30T14:45:00.814Z,4.56
2023-06-30T14:46:30.078Z,4.60
2023-06-30T14:48:03.054Z,4.39
2023-06-30T14:49:45.156Z,4.75
2023-06-30T14:51:18.390Z,4.53
2023-06-30T14:52:58.713Z,4.41
2023-06-30T14:54:44.885Z,4.69
2023-06-30T14:56:18.097Z,4.62
2023-06-30T14:57:58.570Z,4.32
2023-06-30T14:59:53.117Z,5.00
2023-06-30T15:01:26.436Z,4.90
2023-06-30T15:03:07.172Z,5.04
2023-06-30T15:04:51.917Z,4.84
2023-06-30T15:06:16.097Z,4.85
2023-06-30T15:07:56.925Z,4.93
2023-06-30T15:09:45.110Z,4.84
2023-06-30T15:11:18.390Z,4.95
2023-06-30T15:12:58.703Z,4.87
2023-06-30T15:14:27.923Z,4.69
2023-06-30T15:16:03.435Z,4.94
2023-06-30T15:17:32.438Z,5.07
2023-06-30T15:19:08.339Z,5.34
2023-06-30T15:20:53.372Z,5.45
2023-06-30T15:22:27.088Z,5.15
2023-06-30T15:24:00.782Z,4.78
2023-06-30T15:25:39.075Z,5.00
2023-06-30T15:27:28.445Z,4.91
2023-06-30T15:29:01.545Z,4.84
2023-06-30T15:30:37.970Z,5.52
2023-06-30T15:32:26.091Z,5.23
2023-06-30T15:34:01.405Z,5.40
2023-06-30T15:35:37.964Z,5.03
2023-06-30T15:37:18.575Z,5.03
2023-06-30T15:39:03.616Z,5.04
2023-06-30T15:40:48.811Z,5.08
2023-06-30T15:42:38.146Z,5.07
2023-06-30T15:44:11.601Z,5.36
2023-06-30T15:45:56.147Z,5.06
2023-06-30T15:47:25.397Z,5.30
2023-06-30T15:49:06.481Z,5.46
2023-06-30T15:50:28.265Z,5.36
2023-06-30T15:52:04.048Z,5.10
2023-06-30T15:53:32.997Z,4.97
2023-06-30T15:54:56.480Z,4.78
2023-06-30T15:56:33.067Z,4.77
2023-06-30T15:58:04.500Z,5.11
2023-06-30T15:59:37.967Z,4.95
2023-06-30T16:01:09.463Z,5.01
2023-06-30T16:02:54.606Z,4.95
2023-06-30T16:04:39.758Z,4.77
2023-06-30T16:06:13.096Z,5.10
2023-06-30T16:07:46.561Z,4.95
2023-06-30T16:09:22.079Z,4.92
2023-06-30T16:10:46.267Z,4.69
2023-06-30T16:12:32.305Z,4.92
2023-06-30T16:14:17.409Z,5.39
2023-06-30T16:15:51.004Z,5.08
2023-06-30T16:17:20.054Z,5.25
2023-06-30T16:18:53.177Z,5.02
2023-06-30T16:20:15.278Z,5.26
2023-06-30T16:21:51.759Z,5.06
2023-06-30T16:23:36.524Z,5.02
2023-06-30T16:25:00.114Z,4.79
2023-06-30T16:26:33.409Z,5.54
2023-06-30T16:27:54.788Z,5.25
2023-06-30T16:29:18.973Z,5.39
2023-06-30T16:30:54.532Z,5.70
2023-06-30T16:32:39.989Z,5.68
2023-06-30T16:34:13.433Z,5.58
2023-06-30T16:35:35.052Z,5.38
2023-06-30T16:36:58.745Z,5.66
2023-06-30T16:38:53.141Z,5.37
2023-06-30T16:40:18.605Z,5.79
2023-06-30T17:04:15.121Z,4.96
2023-06-30T17:06:00.153Z,5.88
2023-06-30T17:07:54.160Z,5.88
2023-06-30T17:09:23.187Z,5.78
2023-06-30T17:10:58.345Z,5.70
2023-06-30T17:12:31.791Z,6.26
2023-06-30T17:14:01.663Z,6.00
2023-06-30T17:15:30.666Z,6.22
2023-06-30T17:16:54.355Z,5.56
2023-06-30T17:18:38.809Z,5.67
2023-06-30T17:20:03.754Z,6.56
2023-06-30T17:21:40.373Z,6.32
2023-06-30T17:23:16.348Z,5.80
2023-06-30T17:25:04.830Z,6.45
2023-06-30T17:26:41.331Z,6.20
2023-06-30T17:28:26.258Z,6.32
2023-06-30T17:29:59.329Z,6.36
2023-06-30T17:31:44.077Z,6.53
2023-06-30T17:33:33.054Z,6.15
2023-06-30T17:35:06.373Z,5.66
2023-06-30T17:36:39.951Z,5.68
2023-06-30T17:38:14.783Z,6.21
2023-06-30T17:39:43.561Z,6.41
2023-06-30T17:41:26.166Z,6.34
2023-06-30T17:42:59.625Z,6.03
2023-06-30T17:44:52.849Z,6.45
2023-06-30T17:46:26.316Z,6.13
2023-06-30T17:48:11.570Z,7.74
2023-06-30T17:49:56.525Z,8.13
2023-06-30T17:51:25.931Z,8.23
2023-06-30T17:53:10.388Z,6.30
2023-06-30T17:54:54.950Z,6.95
2023-06-30T17:56:21.122Z,8.71
2023-06-30T17:57:54.543Z,8.24
2023-06-30T17:59:30.064Z,7.77
2023-06-30T18:01:14.780Z,7.64
2023-06-30T18:02:45.841Z,7.83
2023-06-30T18:04:26.705Z,7.87
2023-06-30T18:05:59.699Z,8.83
2023-06-30T18:07:32.810Z,9.18
2023-06-30T18:08:56.730Z,12.80
2023-06-30T18:10:30.039Z,10.43
2023-06-30T18:12:03.404Z,7.31
2023-06-30T18:13:41.399Z,6.83
2023-06-30T18:15:02.988Z,6.86
2023-06-30T18:16:33.953Z,7.61
2023-06-30T18:18:18.685Z,7.18
2023-06-30T18:20:03.414Z,7.41
2023-06-30T18:21:37.430Z,7.52
2023-06-30T18:23:18.323Z,7.38
2023-06-30T18:24:51.442Z,7.44
2023-06-30T18:26:26.694Z,7.33
2023-06-30T18:28:02.198Z,8.52
2023-06-30T18:29:47.864Z,7.89
2023-06-30T18:31:21.394Z,7.55
2023-06-30T18:32:42.879Z,8.00
2023-06-30T18:34:28.577Z,7.71
2023-06-30T18:36:01.712Z,7.82
2023-06-30T18:37:35.703Z,8.58
2023-06-30T18:39:00.947Z,8.76
2023-06-30T18:40:47.362Z,8.23
2023-06-30T18:42:20.689Z,7.96
2023-06-30T18:43:56.049Z,8.80
2023-06-30T18:45:29.515Z,8.00
2023-06-30T18:47:09.522Z,8.20
2023-06-30T18:48:54.338Z,8.33
2023-06-30T18:50:25.193Z,7.77
2023-06-30T18:52:00.419Z,8.02
2023-06-30T18:53:24.239Z,8.09
2023-06-30T18:54:59.570Z,7.90
2023-06-30T18:56:43.014Z,7.65
2023-06-30T18:58:04.550Z,8.17
2023-06-30T18:59:49.348Z,7.31
2023-06-30T19:01:24.857Z,8.27
2023-06-30T19:02:53.699Z,8.39
2023-06-30T19:04:46.181Z,7.46
2023-06-30T19:06:19.396Z,7.16
2023-06-30T19:07:52.476Z,7.11
2023-06-30T19:09:33.004Z,7.41
2023-06-30T19:11:05.767Z,7.37
2023-06-30T19:12:27.402Z,8.49
2023-06-30T19:14:02.496Z,8.55
2023-06-30T19:15:29.024Z,9.34
2023-06-30T19:16:52.716Z,8.89
2023-06-30T19:18:28.919Z,9.62
2023-06-30T19:20:02.061Z,9.00
2023-06-30T19:21:31.270Z,8.96
2023-06-30T19:23:16.209Z,8.97
2023-06-30T19:24:56.186Z,8.47
2023-06-30T19:26:41.033Z,8.54
2023-06-30T19:28:26.173Z,9.36
2023-06-30T19:30:20.186Z,8.91
2023-06-30T19:31:53.150Z,10.89
2023-06-30T19:33:26.136Z,10.74
2023-06-30T19:35:10.771Z,9.88
2023-06-30T19:36:56.169Z,9.79
2023-06-30T19:38:18.063Z,8.53
2023-06-30T19:39:58.275Z,8.86
2023-06-30T19:41:31.513Z,8.82
2023-06-30T19:43:16.189Z,8.26
2023-06-30T19:44:49.250Z,7.98
2023-06-30T19:46:34.461Z,8.63
2023-06-30T19:48:09.973Z,8.71
2023-06-30T19:49:45.171Z,8.46
2023-06-30T19:51:11.527Z,8.92
2023-06-30T19:52:56.119Z,8.32
2023-06-30T19:54:29.659Z,8.67
2023-06-30T19:56:14.671Z,8.89
2023-06-30T19:57:59.290Z,8.53
2023-06-30T19:59:39.849Z,8.53
2023-06-30T20:01:24.746Z,8.05
2023-06-30T20:02:58.268Z,8.41
2023-06-30T20:04:31.552Z,8.89
2023-06-30T20:06:04.775Z,8.57
2023-06-30T20:07:37.854Z,8.83
2023-06-30T20:09:11.608Z,9.17
2023-06-30T20:10:44.671Z,8.44
2023-06-30T20:12:18.130Z,9.05
2023-06-30T20:13:51.272Z,8.69
2023-06-30T20:15:24.580Z,8.50
2023-06-30T20:16:53.301Z,9.06
2023-06-30T20:18:38.061Z,8.23
2023-06-30T20:20:09.230Z,8.20
2023-06-30T20:21:44.518Z,8.70
2023-06-30T20:23:24.948Z,10.55
2023-06-30T20:24:58.014Z,10.32
2023-06-30T20:26:33.560Z,10.05
2023-06-30T20:28:06.658Z,9.87
2023-06-30T20:29:51.723Z,9.87
2023-06-30T20:31:25.524Z,9.49
2023-06-30T20:32:54.653Z,9.53
2023-06-30T20:34:28.415Z,9.85
2023-06-30T20:36:04.041Z,9.55
2023-06-30T20:37:37.901Z,9.96
2023-06-30T20:39:11.421Z,9.80
2023-06-30T20:40:51.562Z,9.31
2023-06-30T20:42:25.942Z,9.80
2023-06-30T20:44:00.996Z,9.72
2023-06-30T20:45:45.965Z,9.84
2023-06-30T20:47:19.185Z,9.36
2023-06-30T20:48:48.271Z,9.59
2023-06-30T20:50:33.032Z,9.85
2023-06-30T20:52:17.633Z,10.67
2023-06-30T20:53:41.414Z,10.60
2023-06-30T20:55:14.964Z,11.19
2023-06-30T20:56:50.489Z,10.23
2023-06-30T20:58:21.440Z,10.22
2023-06-30T21:00:06.341Z,10.46
2023-06-30T21:01:39.749Z,10.38
2023-06-30T21:03:15.266Z,10.85
2023-06-30T21:04:38.891Z,10.25
2023-06-30T21:06:14.781Z,10.99
2023-06-30T21:07:38.707Z,11.17
2023-06-30T21:09:22.647Z,11.21
2023-06-30T21:10:57.955Z,10.39
2023-06-30T21:12:40.189Z,10.63
2023-06-30T21:14:24.950Z,11.10
2023-06-30T21:15:48.853Z,11.69
2023-06-30T21:17:31.240Z,11.22
2023-06-30T21:19:11.614Z,11.78
2023-06-30T21:20:45.642Z,11.45
2023-06-30T21:22:40.255Z,11.05
2023-06-30T21:24:11.227Z,11.19
2023-06-30T21:25:35.316Z,11.13
2023-06-30T21:27:19.959Z,11.94
2023-06-30T21:28:48.733Z,11.50
2023-06-30T21:30:24.354Z,12.53
2023-06-30T21:32:12.577Z,12.19
2023-06-30T21:33:54.764Z,12.24
2023-06-30T21:35:35.659Z,12.04
2023-06-30T21:37:16.268Z,12.57
2023-06-30T21:38:47.086Z,12.30
2023-06-30T21:40:22.439Z,12.43
2023-06-30T21:42:02.789Z,12.43
2023-06-30T21:43:43.244Z,12.65
2023-06-30T21:45:09.620Z,13.43
2023-06-30T21:46:43.673Z,13.57
2023-06-30T21:48:24.257Z,12.23
2023-06-30T21:50:08.816Z,12.91
2023-06-30T21:51:42.005Z,11.89
2023-06-30T21:53:36.217Z,12.13
2023-06-30T21:55:21.023Z,11.49
2023-06-30T21:56:56.258Z,12.66
2023-06-30T21:58:27.387Z,12.84
2023-06-30T22:00:20.093Z,12.83
2023-06-30T22:01:53.175Z,13.39
2023-06-30T22:03:34.025Z,12.64
2023-06-30T22:05:14.943Z,12.08
2023-06-30T22:06:36.593Z,11.91
2023-06-30T22:07:57.871Z,12.03
2023-06-30T22:09:21.849Z,13.47
2023-06-30T22:10:50.964Z,13.05
2023-06-30T22:12:25.318Z,12.91
2023-06-30T22:13:49.651Z,12.72
2023-06-30T22:15:30.503Z,13.89
2023-06-30T22:17:10.717Z,13.38
2023-06-30T22:18:44.196Z,12.33
2023-06-30T22:20:37.956Z,12.31
2023-06-30T22:22:18.319Z,13.02
2023-06-30T22:23:49.392Z,13.34
2023-06-30T22:25:29.899Z,14.06
2023-06-30T22:27:03.539Z,13.79
2023-06-30T22:28:48.031Z,14.09
2023-06-30T22:30:21.278Z,13.42
2023-06-30T22:31:42.570Z,13.80
2023-06-30T22:33:04.269Z,12.82
2023-06-30T22:34:37.655Z,13.25
2023-06-30T22:36:06.417Z,13.84
2023-06-30T22:37:42.071Z,13.47
2023-06-30T22:39:17.644Z,13.76
2023-06-30T22:41:02.314Z,13.08
2023-06-30T22:42:46.976Z,14.35
2023-06-30T22:44:22.965Z,12.75
2023-06-30T22:45:48.025Z,12.43
2023-06-30T22:47:23.659Z,12.45
2023-06-30T22:49:18.218Z,12.23
2023-06-30T22:51:04.079Z,13.04
2023-06-30T22:52:40.869Z,12.36
2023-06-30T22:54:35.253Z,13.09
2023-06-30T22:56:16.266Z,13.86
2023-06-30T22:57:52.226Z,12.99
2023-06-30T22:59:23.456Z,13.37
2023-06-30T23:01:08.444Z,13.30
2023-06-30T23:02:42.157Z,14.61
2023-06-30T23:04:22.812Z,14.06
2023-06-30T23:05:52.217Z,14.70
2023-06-30T23:07:27.801Z,15.17
2023-06-30T23:09:13.028Z,15.03
2023-06-30T23:10:57.941Z,14.99
2023-06-30T23:12:52.295Z,15.00
2023-06-30T23:14:25.613Z,15.23
2023-06-30T23:15:47.703Z,14.87
2023-06-30T23:17:27.699Z,15.23
2023-06-30T23:18:49.918Z,15.90
2023-06-30T23:20:26.738Z,15.96
2023-06-30T23:22:11.751Z,14.87
2023-06-30T23:23:44.762Z,14.81
2023-06-30T23:25:25.641Z,14.56
2023-06-30T23:27:15.819Z,14.07
2023-06-30T23:28:54.412Z,14.65
2023-06-30T23:30:39.625Z,15.06
2023-06-30T23:32:18.352Z,14.49
2023-06-30T23:33:51.242Z,14.86
2023-06-30T23:35:37.973Z,13.71
2023-06-30T23:37:23.043Z,14.51
2023-06-30T23:39:07.447Z,13.74
2023-06-30T23:40:44.385Z,13.63
2023-06-30T23:42:27.182Z,13.71